La rose des vents
Donnes mto: Semaine 02/05/16 - 08/05/16 (S 18)
Date Horaire Temp. E. Hum. E. P.atmo. Pluie Vent 1mn Direction Ensoleilleme Ev.Tr. Solaire P. de rose Temp au vent Rafales
02/05/2016 00:00 10,2 C 77 % 1012,5 hPa 0,0 l/m 0,3 km/h (0 Bft) O-NO 0,00 h 0,025 mm 0 W/m 6,4 C 10,2 C 1,5 km/h (1 Bft)
02/05/2016 01:00 9,9 C 77 % 1012,1 hPa 0,0 l/m 0,2 km/h (0 Bft) NO 0,00 h 0,025 mm 0 W/m 6,0 C 9,9 C 1,0 km/h (0 Bft)
02/05/2016 02:00 9,9 C 75 % 1011,8 hPa 0,0 l/m 0,4 km/h (0 Bft) O-SO 0,00 h 0,025 mm 0 W/m 5,8 C 9,9 C 1,8 km/h (1 Bft)
02/05/2016 03:00 10,2 C 72 % 1011,3 hPa 0,0 l/m 0,6 km/h (0 Bft) O-NO 0,00 h 0,025 mm 0 W/m 5,4 C 10,2 C 2,8 km/h (1 Bft)
02/05/2016 04:00 9,9 C 71 % 1011,0 hPa 0,0 l/m 0,2 km/h (0 Bft) N-NO 0,00 h 0,025 mm 0 W/m 4,8 C 9,9 C 0,7 km/h (0 Bft)
02/05/2016 05:00 9,7 C 70 % 1010,7 hPa 0,0 l/m 0,3 km/h (0 Bft) N-NO 0,00 h 0,025 mm 0 W/m 4,4 C 9,7 C 1,2 km/h (1 Bft)
02/05/2016 06:00 9,7 C 69 % 1010,8 hPa 0,0 l/m 0,2 km/h (0 Bft) N-NO 0,00 h 0,025 mm 10 W/m 4,3 C 9,7 C 1,1 km/h (1 Bft)
02/05/2016 07:00 10,4 C 66 % 1011,0 hPa 0,0 l/m 0,3 km/h (0 Bft) N-NO 0,00 h 0,000 mm 35 W/m 4,4 C 10,4 C 1,8 km/h (1 Bft)
02/05/2016 08:00 12,5 C 64 % 1011,0 hPa 0,0 l/m 0,0 km/h (0 Bft) N 0,15 h 0,025 mm 117 W/m 5,9 C 12,5 C 1,1 km/h (0 Bft)
02/05/2016 09:00 15,2 C 58 % 1010,9 hPa 0,0 l/m 0,4 km/h (0 Bft) E 0,55 h 0,076 mm 395 W/m 6,9 C 15,2 C 1,6 km/h (1 Bft)
02/05/2016 10:00 18,5 C 46 % 1010,8 hPa 0,0 l/m 1,4 km/h (1 Bft) E 0,93 h 0,203 mm 649 W/m 6,7 C 18,5 C 3,6 km/h (1 Bft)
02/05/2016 11:00 21,3 C 37 % 1010,7 hPa 0,0 l/m 3,0 km/h (1 Bft) S 0,95 h 0,381 mm 741 W/m 6,0 C 21,3 C 6,6 km/h (2 Bft)
02/05/2016 12:00 21,7 C 38 % 1010,8 hPa 0,0 l/m 5,6 km/h (1 Bft) E-SE 0,63 h 0,483 mm 652 W/m 6,6 C 21,7 C 11,3 km/h (2 Bft)
02/05/2016 13:00 19,5 C 41 % 1011,6 hPa 0,0 l/m 2,4 km/h (1 Bft) E 0,02 h 0,483 mm 382 W/m 5,9 C 19,5 C 6,5 km/h (2 Bft)
02/05/2016 14:00 18,8 C 43 % 1012,1 hPa 0,0 l/m 0,4 km/h (0 Bft) E 0,00 h 0,254 mm 271 W/m 6,0 C 18,8 C 1,7 km/h (1 Bft)
02/05/2016 15:00 18,6 C 42 % 1011,9 hPa 0,0 l/m 1,1 km/h (1 Bft) S-SO 0,00 h 0,178 mm 210 W/m 5,5 C 18,6 C 3,0 km/h (1 Bft)
02/05/2016 16:00 18,9 C 43 % 1011,9 hPa 0,0 l/m 1,4 km/h (1 Bft) S-SO 0,00 h 0,127 mm 180 W/m 5,9 C 18,9 C 3,7 km/h (1 Bft)
02/05/2016 17:00 18,8 C 48 % 1012,2 hPa 0,0 l/m 1,0 km/h (0 Bft) S 0,00 h 0,127 mm 154 W/m 7,7 C 18,8 C 2,7 km/h (1 Bft)
02/05/2016 18:00 18,7 C 41 % 1012,4 hPa 0,0 l/m 1,3 km/h (1 Bft) S 0,30 h 0,102 mm 182 W/m 5,2 C 18,7 C 3,7 km/h (1 Bft)
02/05/2016 19:00 17,9 C 45 % 1012,2 hPa 0,0 l/m 1,0 km/h (0 Bft) O-SO 0,55 h 0,127 mm 86 W/m 5,6 C 17,9 C 3,1 km/h (1 Bft)
02/05/2016 20:00 16,6 C 47 % 1012,7 hPa 0,0 l/m 0,1 km/h (0 Bft) S-SE 0,02 h 0,076 mm 14 W/m 5,4 C 16,6 C 0,4 km/h (0 Bft)
02/05/2016 21:00 14,7 C 55 % 1013,4 hPa 0,0 l/m 0,0 km/h (0 Bft) N 0,00 h 0,025 mm 0 W/m 5,9 C 14,7 C 0,0 km/h (0 Bft)
02/05/2016 22:00 13,8 C 59 % 1014,1 hPa 0,0 l/m 0,0 km/h (0 Bft) S-SE 0,00 h 0,025 mm 0 W/m 6,0 C 13,8 C 0,6 km/h (0 Bft)
02/05/2016 23:00 12,7 C 63 % 1014,2 hPa 0,0 l/m 0,6 km/h (0 Bft) O-NO 0,00 h 0,025 mm 0 W/m 5,8 C 12,7 C 2,6 km/h (1 Bft)
03/05/2016 00:00 12,9 C 61 % 1014,3 hPa 0,0 l/m 0,0 km/h (0 Bft) N 0,00 h 0,025 mm 0 W/m 5,4 C 12,9 C 0,2 km/h (0 Bft)
03/05/2016 01:00 13,3 C 58 % 1014,2 hPa 0,0 l/m 0,1 km/h (0 Bft) NO 0,00 h 0,025 mm 0 W/m 5,3 C 13,3 C 0,8 km/h (0 Bft)
03/05/2016 02:00 13,2 C 58 % 1013,7 hPa 0,0 l/m 0,2 km/h (0 Bft) NO 0,00 h 0,025 mm 0 W/m 5,2 C 13,2 C 1,1 km/h (1 Bft)
03/05/2016 03:00 13,1 C 58 % 1013,2 hPa 0,0 l/m 0,1 km/h (0 Bft) NO 0,00 h 0,025 mm 0 W/m 4,9 C 13,1 C 1,0 km/h (0 Bft)
03/05/2016 04:00 13,2 C 57 % 1013,1 hPa 0,0 l/m 0,1 km/h (0 Bft) NO 0,00 h 0,025 mm 0 W/m 4,8 C 13,2 C 1,1 km/h (0 Bft)
03/05/2016 05:00 12,9 C 58 % 1012,7 hPa 0,0 l/m 0,2 km/h (0 Bft) NO 0,00 h 0,025 mm 0 W/m 4,8 C 12,9 C 1,4 km/h (1 Bft)
03/05/2016 06:00 13,3 C 56 % 1012,4 hPa 0,0 l/m 0,1 km/h (0 Bft) NO 0,00 h 0,000 mm 11 W/m 4,7 C 13,3 C 0,9 km/h (0 Bft)
03/05/2016 07:00 13,7 C 57 % 1012,5 hPa 0,0 l/m 0,2 km/h (0 Bft) NO 0,00 h 0,025 mm 24 W/m 5,3 C 13,7 C 0,9 km/h (0 Bft)
03/05/2016 08:00 15,5 C 56 % 1013,2 hPa 0,0 l/m 0,1 km/h (0 Bft) NO 0,23 h 0,025 mm 145 W/m 6,6 C 15,5 C 1,1 km/h (1 Bft)
03/05/2016 09:00 18,7 C 48 % 1013,3 hPa 0,0 l/m 1,5 km/h (1 Bft) E-SE 1,00 h 0,076 mm 503 W/m 7,4 C 18,7 C 3,4 km/h (1 Bft)
03/05/2016 10:00 21,7 C 40 % 1013,6 hPa 0,0 l/m 2,2 km/h (1 Bft) E-SE 1,00 h 0,305 mm 661 W/m 7,6 C 21,7 C 5,4 km/h (1 Bft)
03/05/2016 11:00 22,9 C 38 % 1013,7 hPa 0,0 l/m 3,0 km/h (1 Bft) E 1,00 h 0,406 mm 780 W/m 7,9 C 22,9 C 7,1 km/h (2 Bft)
03/05/2016 12:00 23,2 C 39 % 1013,8 hPa 0,0 l/m 3,1 km/h (1 Bft) E 1,00 h 0,508 mm 860 W/m 8,3 C 23,2 C 7,1 km/h (2 Bft)
03/05/2016 13:00 22,9 C 38 % 1013,4 hPa 0,0 l/m 3,4 km/h (1 Bft) E-SE 1,00 h 0,559 mm 884 W/m 7,7 C 22,9 C 7,1 km/h (2 Bft)
03/05/2016 14:00 23,3 C 37 % 1013,1 hPa 0,0 l/m 3,5 km/h (1 Bft) E-SE 0,93 h 0,559 mm 758 W/m 7,7 C 23,3 C 7,4 km/h (2 Bft)
03/05/2016 15:00 21,9 C 45 % 1012,8 hPa 0,0 l/m 3,9 km/h (1 Bft) E-SE 0,90 h 0,508 mm 635 W/m 9,4 C 21,9 C 7,7 km/h (2 Bft)
03/05/2016 16:00 21,2 C 49 % 1012,3 hPa 0,0 l/m 3,1 km/h (1 Bft) E-SE 1,00 h 0,406 mm 619 W/m 10,1 C 21,2 C 6,7 km/h (2 Bft)
03/05/2016 17:00 21,0 C 51 % 1011,8 hPa 0,0 l/m 1,6 km/h (1 Bft) E 0,98 h 0,381 mm 438 W/m 10,4 C 21,0 C 4,1 km/h (1 Bft)
03/05/2016 18:00 19,5 C 52 % 1011,4 hPa 0,0 l/m 0,1 km/h (0 Bft) E 0,80 h 0,279 mm 234 W/m 9,5 C 19,5 C 1,3 km/h (1 Bft)
03/05/2016 19:00 18,8 C 49 % 1011,2 hPa 0,0 l/m 0,0 km/h (0 Bft) N 0,85 h 0,152 mm 119 W/m 7,8 C 18,8 C 0,3 km/h (0 Bft)
03/05/2016 20:00 17,8 C 59 % 1011,5 hPa 0,0 l/m 0,0 km/h (0 Bft) N 0,02 h 0,076 mm 16 W/m 9,7 C 17,8 C 0,0 km/h (0 Bft)
03/05/2016 21:00 15,9 C 56 % 1011,9 hPa 0,0 l/m 0,0 km/h (0 Bft) N 0,00 h 0,025 mm 0 W/m 7,1 C 15,9 C 0,0 km/h (0 Bft)
03/05/2016 22:00 15,1 C 57 % 1012,4 hPa 0,0 l/m 0,0 km/h (0 Bft) N 0,00 h 0,025 mm 0 W/m 6,7 C 15,1 C 0,0 km/h (0 Bft)
03/05/2016 23:00 14,2 C 61 % 1013,2 hPa 0,0 l/m 0,4 km/h (0 Bft) E 0,00 h 0,025 mm 0 W/m 6,9 C 14,2 C 0,9 km/h (0 Bft)
04/05/2016 00:00 13,3 C 72 % 1014,2 hPa 0,0 l/m 1,2 km/h (1 Bft) NO 0,00 h 0,025 mm 0 W/m 8,3 C 13,3 C 3,5 km/h (1 Bft)
04/05/2016 01:00 13,8 C 63 % 1014,1 hPa 0,0 l/m 0,1 km/h (0 Bft) NO 0,00 h 0,025 mm 0 W/m 6,8 C 13,8 C 1,1 km/h (0 Bft)
04/05/2016 02:00 13,2 C 62 % 1014,2 hPa 0,0 l/m 0,1 km/h (0 Bft) NO 0,00 h 0,025 mm 0 W/m 6,1 C 13,2 C 0,6 km/h (0 Bft)
04/05/2016 03:00 13,4 C 60 % 1014,3 hPa 0,0 l/m 0,4 km/h (0 Bft) NO 0,00 h 0,025 mm 0 W/m 5,8 C 13,4 C 2,1 km/h (1 Bft)
04/05/2016 04:00 13,0 C 59 % 1014,6 hPa 0,0 l/m 0,7 km/h (0 Bft) O-NO 0,00 h 0,025 mm 0 W/m 5,2 C 13,0 C 1,6 km/h (1 Bft)
04/05/2016 05:00 12,1 C 62 % 1015,2 hPa 0,0 l/m 0,1 km/h (0 Bft) O-NO 0,00 h 0,025 mm 0 W/m 5,2 C 12,1 C 0,8 km/h (0 Bft)
04/05/2016 06:00 12,3 C 59 % 1015,6 hPa 0,0 l/m 1,0 km/h (0 Bft) O-NO 0,07 h 0,000 mm 14 W/m 4,5 C 12,3 C 3,3 km/h (1 Bft)
04/05/2016 07:00 13,0 C 57 % 1016,0 hPa 0,0 l/m 1,2 km/h (1 Bft) O-NO 0,00 h 0,025 mm 28 W/m 4,7 C 13,0 C 3,0 km/h (1 Bft)
04/05/2016 08:00 14,3 C 56 % 1016,5 hPa 0,0 l/m 0,2 km/h (0 Bft) N-NO 0,25 h 0,025 mm 145 W/m 5,6 C 14,3 C 1,3 km/h (1 Bft)
04/05/2016 09:00 18,6 C 45 % 1016,6 hPa 0,0 l/m 1,4 km/h (1 Bft) S 1,00 h 0,076 mm 505 W/m 6,4 C 18,6 C 3,3 km/h (1 Bft)
04/05/2016 10:00 21,4 C 38 % 1016,5 hPa 0,0 l/m 3,5 km/h (1 Bft) SO 1,00 h 0,305 mm 666 W/m 6,5 C 21,4 C 6,5 km/h (2 Bft)
04/05/2016 11:00 23,1 C 37 % 1016,7 hPa 0,0 l/m 7,1 km/h (2 Bft) S 1,00 h 0,432 mm 788 W/m 7,5 C 23,1 C 12,4 km/h (3 Bft)
04/05/2016 12:00 23,8 C 32 % 1016,9 hPa 0,0 l/m 8,3 km/h (2 Bft) S 1,00 h 0,559 mm 865 W/m 5,9 C 23,8 C 13,9 km/h (3 Bft)
04/05/2016 13:00 23,3 C 29 % 1017,1 hPa 0,0 l/m 9,8 km/h (2 Bft) S 1,00 h 0,610 mm 886 W/m 4,3 C 23,3 C 16,6 km/h (3 Bft)
04/05/2016 14:00 23,2 C 25 % 1017,1 hPa 0,0 l/m 8,4 km/h (2 Bft) S-SE 1,00 h 0,635 mm 853 W/m 2,3 C 23,2 C 14,0 km/h (3 Bft)
04/05/2016 15:00 23,2 C 26 % 1016,8 hPa 0,0 l/m 8,0 km/h (2 Bft) S 1,00 h 0,610 mm 768 W/m 2,4 C 23,2 C 13,2 km/h (3 Bft)
04/05/2016 16:00 22,8 C 25 % 1016,6 hPa 0,0 l/m 6,9 km/h (2 Bft) S 1,00 h 0,559 mm 642 W/m 2,0 C 22,8 C 12,0 km/h (2 Bft)
04/05/2016 17:00 22,3 C 26 % 1016,6 hPa 0,0 l/m 6,1 km/h (2 Bft) S 1,00 h 0,483 mm 481 W/m 1,9 C 22,3 C 10,5 km/h (2 Bft)
04/05/2016 18:00 21,1 C 27 % 1016,7 hPa 0,0 l/m 4,8 km/h (1 Bft) S 1,00 h 0,356 mm 307 W/m 1,5 C 21,1 C 8,7 km/h (2 Bft)
04/05/2016 19:00 19,8 C 30 % 1016,5 hPa 0,0 l/m 2,1 km/h (1 Bft) S-SO 0,85 h 0,229 mm 131 W/m 1,5 C 19,8 C 4,4 km/h (1 Bft)
04/05/2016 20:00 17,9 C 36 % 1016,5 hPa 0,0 l/m 0,1 km/h (0 Bft) S 0,00 h 0,102 mm 15 W/m 2,5 C 17,9 C 0,6 km/h (0 Bft)
04/05/2016 21:00 16,0 C 41 % 1016,5 hPa 0,0 l/m 0,1 km/h (0 Bft) SO 0,00 h 0,025 mm 0 W/m 2,8 C 16,0 C 0,5 km/h (0 Bft)
04/05/2016 22:00 14,6 C 45 % 1016,6 hPa 0,0 l/m 0,1 km/h (0 Bft) SO 0,00 h 0,000 mm 0 W/m 2,7 C 14,6 C 1,1 km/h (0 Bft)
04/05/2016 23:00 14,0 C 47 % 1016,4 hPa 0,0 l/m 0,1 km/h (0 Bft) N 0,00 h 0,051 mm 0 W/m 2,8 C 14,0 C 0,8 km/h (0 Bft)
05/05/2016 00:00 13,5 C 48 % 1016,4 hPa 0,0 l/m 0,0 km/h (0 Bft) N 0,00 h 0,051 mm 0 W/m 2,8 C 13,5 C 0,6 km/h (0 Bft)
05/05/2016 01:00 13,3 C 50 % 1016,2 hPa 0,0 l/m 0,3 km/h (0 Bft) N 0,00 h 0,051 mm 0 W/m 3,0 C 13,3 C 0,8 km/h (0 Bft)
05/05/2016 02:00 12,7 C 51 % 1015,8 hPa 0,0 l/m 0,7 km/h (0 Bft) NO 0,00 h 0,051 mm 0 W/m 2,8 C 12,7 C 1,6 km/h (1 Bft)
05/05/2016 03:00 13,1 C 50 % 1015,4 hPa 0,0 l/m 1,3 km/h (1 Bft) O-NO 0,00 h 0,051 mm 0 W/m 2,9 C 13,1 C 3,2 km/h (1 Bft)
05/05/2016 04:00 13,1 C 51 % 1015,2 hPa 0,0 l/m 0,0 km/h (0 Bft) O-NO 0,00 h 0,051 mm 0 W/m 3,3 C 13,1 C 0,3 km/h (0 Bft)
05/05/2016 05:00 12,1 C 56 % 1015,4 hPa 0,0 l/m 0,0 km/h (0 Bft) N 0,00 h 0,025 mm 0 W/m 3,5 C 12,1 C 0,1 km/h (0 Bft)
05/05/2016 06:00 11,2 C 59 % 1015,8 hPa 0,0 l/m 0,0 km/h (0 Bft) O-NO 0,00 h 0,000 mm 12 W/m 3,5 C 11,2 C 0,2 km/h (0 Bft)
05/05/2016 07:00 11,3 C 63 % 1016,4 hPa 0,0 l/m 0,1 km/h (0 Bft) O-NO 0,00 h 0,000 mm 27 W/m 4,5 C 11,3 C 0,5 km/h (0 Bft)
05/05/2016 08:00 13,4 C 61 % 1017,2 hPa 0,0 l/m 0,7 km/h (0 Bft) NE 0,32 h 0,025 mm 154 W/m 6,0 C 13,4 C 2,6 km/h (1 Bft)
05/05/2016 09:00 17,5 C 59 % 1017,9 hPa 0,0 l/m 3,1 km/h (1 Bft) E 1,00 h 0,076 mm 498 W/m 9,3 C 17,5 C 8,5 km/h (2 Bft)
05/05/2016 10:00 19,2 C 60 % 1018,5 hPa 0,0 l/m 4,1 km/h (1 Bft) E-SE 1,00 h 0,305 mm 679 W/m 11,2 C 19,2 C 11,0 km/h (2 Bft)
05/05/2016 11:00 20,2 C 47 % 1018,9 hPa 0,0 l/m 5,8 km/h (2 Bft) N-NE 1,00 h 0,381 mm 777 W/m 8,6 C 20,2 C 15,5 km/h (3 Bft)
05/05/2016 12:00 21,3 C 43 % 1019,0 hPa 0,0 l/m 5,2 km/h (1 Bft) E 1,00 h 0,483 mm 853 W/m 8,3 C 21,3 C 13,3 km/h (3 Bft)
05/05/2016 13:00 21,9 C 43 % 1018,9 hPa 0,0 l/m 6,1 km/h (2 Bft) E-SE 1,00 h 0,533 mm 876 W/m 8,8 C 21,9 C 15,5 km/h (3 Bft)
05/05/2016 14:00 21,7 C 42 % 1019,0 hPa 0,0 l/m 5,2 km/h (1 Bft) E 0,98 h 0,584 mm 820 W/m 8,3 C 21,7 C 13,9 km/h (3 Bft)
05/05/2016 15:00 21,4 C 44 % 1018,8 hPa 0,0 l/m 3,9 km/h (1 Bft) E 0,95 h 0,533 mm 573 W/m 8,6 C 21,4 C 10,2 km/h (2 Bft)
05/05/2016 16:00 20,6 C 53 % 1018,4 hPa 0,0 l/m 2,2 km/h (1 Bft) E-SE 0,67 h 0,381 mm 419 W/m 10,7 C 20,6 C 6,6 km/h (2 Bft)
05/05/2016 17:00 20,0 C 59 % 1018,2 hPa 0,0 l/m 2,1 km/h (1 Bft) E-SE 0,67 h 0,279 mm 459 W/m 11,7 C 20,0 C 5,3 km/h (1 Bft)
05/05/2016 18:00 20,7 C 49 % 1018,0 hPa 0,0 l/m 1,3 km/h (1 Bft) E-SE 0,45 h 0,279 mm 241 W/m 9,5 C 20,7 C 4,1 km/h (1 Bft)
05/05/2016 19:00 18,6 C 58 % 1017,8 hPa 0,0 l/m 0,5 km/h (0 Bft) E-SE 0,18 h 0,152 mm 63 W/m 10,1 C 18,6 C 2,2 km/h (1 Bft)
05/05/2016 20:00 16,7 C 59 % 1017,7 hPa 0,0 l/m 0,0 km/h (0 Bft) N 0,02 h 0,051 mm 16 W/m 8,7 C 16,7 C 0,0 km/h (0 Bft)
05/05/2016 21:00 15,4 C 61 % 1018,0 hPa 0,0 l/m 0,0 km/h (0 Bft) E-NE 0,00 h 0,025 mm 0 W/m 7,9 C 15,4 C 0,7 km/h (0 Bft)
05/05/2016 22:00 14,7 C 57 % 1018,1 hPa 0,0 l/m 0,1 km/h (0 Bft) N 0,00 h 0,025 mm 0 W/m 6,4 C 14,7 C 1,1 km/h (0 Bft)
05/05/2016 23:00 14,4 C 54 % 1018,1 hPa 0,0 l/m 0,0 km/h (0 Bft) N 0,00 h 0,025 mm 0 W/m 5,2 C 14,4 C 0,6 km/h (0 Bft)
06/05/2016 00:00 13,2 C 55 % 1018,0 hPa 0,0 l/m 0,0 km/h (0 Bft) N 0,00 h 0,025 mm 0 W/m 4,2 C 13,2 C 0,1 km/h (0 Bft)
06/05/2016 01:00 12,7 C 55 % 1018,0 hPa 0,0 l/m 0,0 km/h (0 Bft) N 0,00 h 0,025 mm 0 W/m 3,9 C 12,7 C 0,1 km/h (0 Bft)
06/05/2016 02:00 12,7 C 53 % 1017,6 hPa 0,0 l/m 0,1 km/h (0 Bft) NE 0,00 h 0,025 mm 0 W/m 3,4 C 12,7 C 0,9 km/h (0 Bft)
06/05/2016 03:00 12,7 C 51 % 1017,3 hPa 0,0 l/m 0,1 km/h (0 Bft) N-NE 0,00 h 0,025 mm 0 W/m 2,7 C 12,7 C 0,5 km/h (0 Bft)
06/05/2016 04:00 12,2 C 53 % 1017,0 hPa 0,0 l/m 0,0 km/h (0 Bft) N 0,00 h 0,025 mm 0 W/m 2,8 C 12,2 C 0,2 km/h (0 Bft)
06/05/2016 05:00 12,3 C 53 % 1016,7 hPa 0,0 l/m 0,0 km/h (0 Bft) N 0,00 h 0,025 mm 0 W/m 2,9 C 12,3 C 0,3 km/h (0 Bft)
06/05/2016 06:00 12,7 C 52 % 1016,9 hPa 0,0 l/m 0,2 km/h (0 Bft) N 0,03 h 0,000 mm 13 W/m 3,2 C 12,7 C 1,3 km/h (1 Bft)
06/05/2016 07:00 13,2 C 54 % 1017,2 hPa 0,0 l/m 0,1 km/h (0 Bft) N 0,00 h 0,025 mm 30 W/m 4,2 C 13,2 C 1,1 km/h (1 Bft)
06/05/2016 08:00 14,8 C 50 % 1017,1 hPa 0,0 l/m 0,2 km/h (0 Bft) N 0,28 h 0,025 mm 154 W/m 4,5 C 14,8 C 1,1 km/h (0 Bft)
06/05/2016 09:00 18,4 C 41 % 1017,0 hPa 0,0 l/m 1,4 km/h (1 Bft) E-SE 1,00 h 0,102 mm 507 W/m 5,0 C 18,4 C 3,8 km/h (1 Bft)
06/05/2016 10:00 21,4 C 36 % 1016,9 hPa 0,0 l/m 3,1 km/h (1 Bft) E-SE 1,00 h 0,305 mm 664 W/m 5,8 C 21,4 C 7,2 km/h (2 Bft)
06/05/2016 11:00 23,0 C 39 % 1016,9 hPa 0,0 l/m 3,6 km/h (1 Bft) E-SE 1,00 h 0,432 mm 785 W/m 8,3 C 23,0 C 9,8 km/h (2 Bft)
06/05/2016 12:00 22,5 C 45 % 1016,9 hPa 0,0 l/m 5,6 km/h (1 Bft) E 1,00 h 0,508 mm 859 W/m 10,0 C 22,5 C 13,6 km/h (3 Bft)
06/05/2016 13:00 22,4 C 43 % 1016,7 hPa 0,0 l/m 4,8 km/h (1 Bft) E 1,00 h 0,559 mm 881 W/m 9,4 C 22,4 C 12,1 km/h (2 Bft)
06/05/2016 14:00 23,0 C 39 % 1016,4 hPa 0,0 l/m 4,3 km/h (1 Bft) E 1,00 h 0,559 mm 848 W/m 8,1 C 23,0 C 10,6 km/h (2 Bft)
06/05/2016 15:00 22,8 C 39 % 1015,9 hPa 0,0 l/m 2,1 km/h (1 Bft) NE 0,92 h 0,559 mm 591 W/m 8,0 C 22,8 C 6,6 km/h (2 Bft)
06/05/2016 16:00 22,5 C 38 % 1015,6 hPa 0,0 l/m 2,5 km/h (1 Bft) NE 0,97 h 0,381 mm 576 W/m 7,3 C 22,5 C 7,1 km/h (2 Bft)
06/05/2016 17:00 22,4 C 38 % 1015,0 hPa 0,0 l/m 2,2 km/h (1 Bft) E-SE 1,00 h 0,381 mm 503 W/m 7,4 C 22,4 C 5,9 km/h (2 Bft)
06/05/2016 18:00 20,8 C 43 % 1014,9 hPa 0,0 l/m 1,4 km/h (1 Bft) E-SE 1,00 h 0,330 mm 321 W/m 7,7 C 20,8 C 4,3 km/h (1 Bft)
06/05/2016 19:00 19,6 C 48 % 1014,5 hPa 0,0 l/m 0,3 km/h (0 Bft) E-SE 0,75 h 0,203 mm 143 W/m 8,3 C 19,6 C 1,5 km/h (1 Bft)
06/05/2016 20:00 17,7 C 52 % 1014,3 hPa 0,0 l/m 0,0 km/h (0 Bft) E-SE 0,05 h 0,102 mm 18 W/m 7,6 C 17,7 C 0,2 km/h (0 Bft)
06/05/2016 21:00 16,0 C 54 % 1014,3 hPa 0,0 l/m 0,0 km/h (0 Bft) N 0,00 h 0,025 mm 0 W/m 6,7 C 16,0 C 0,1 km/h (0 Bft)
06/05/2016 22:00 14,7 C 54 % 1014,1 hPa 0,0 l/m 0,0 km/h (0 Bft) N 0,00 h 0,000 mm 0 W/m 5,3 C 14,7 C 0,0 km/h (0 Bft)
06/05/2016 23:00 13,4 C 54 % 1013,8 hPa 0,0 l/m 0,0 km/h (0 Bft) N 0,00 h 0,025 mm 0 W/m 4,3 C 13,4 C 0,0 km/h (0 Bft)
07/05/2016 00:00 13,3 C 54 % 1013,9 hPa 0,0 l/m 0,0 km/h (0 Bft) E-SE 0,00 h 0,025 mm 0 W/m 4,2 C 13,3 C 0,1 km/h (0 Bft)
07/05/2016 01:00 13,6 C 54 % 1013,9 hPa 0,0 l/m 0,0 km/h (0 Bft) N 0,00 h 0,025 mm 0 W/m 4,5 C 13,6 C 0,2 km/h (0 Bft)
07/05/2016 02:00 12,9 C 58 % 1013,3 hPa 0,0 l/m 0,0 km/h (0 Bft) N 0,00 h 0,025 mm 0 W/m 4,7 C 12,9 C 0,1 km/h (0 Bft)
07/05/2016 03:00 12,4 C 60 % 1012,8 hPa 0,0 l/m 0,0 km/h (0 Bft) N 0,00 h 0,025 mm 0 W/m 4,8 C 12,4 C 0,4 km/h (0 Bft)
07/05/2016 04:00 12,4 C 60 % 1012,6 hPa 0,0 l/m 0,2 km/h (0 Bft) E-SE 0,00 h 0,025 mm 0 W/m 4,8 C 12,4 C 1,0 km/h (0 Bft)
07/05/2016 05:00 13,5 C 57 % 1012,2 hPa 0,0 l/m 0,2 km/h (0 Bft) E-SE 0,00 h 0,025 mm 0 W/m 5,2 C 13,5 C 1,4 km/h (1 Bft)
07/05/2016 06:00 13,5 C 60 % 1012,2 hPa 0,0 l/m 0,5 km/h (0 Bft) E-SE 0,57 h 0,000 mm 28 W/m 5,8 C 13,5 C 1,6 km/h (1 Bft)
07/05/2016 07:00 14,5 C 61 % 1012,3 hPa 0,0 l/m 0,5 km/h (0 Bft) NE 0,00 h 0,025 mm 86 W/m 6,9 C 14,5 C 2,2 km/h (1 Bft)
07/05/2016 08:00 15,9 C 60 % 1012,6 hPa 0,0 l/m 1,1 km/h (1 Bft) NE 0,25 h 0,051 mm 215 W/m 8,1 C 15,9 C 4,3 km/h (1 Bft)
07/05/2016 09:00 18,6 C 55 % 1012,3 hPa 0,0 l/m 3,3 km/h (1 Bft) NE 1,00 h 0,127 mm 469 W/m 9,3 C 18,6 C 9,7 km/h (2 Bft)
07/05/2016 10:00 20,7 C 48 % 1012,1 hPa 0,0 l/m 5,3 km/h (1 Bft) E 1,00 h 0,279 mm 667 W/m 9,4 C 20,7 C 13,3 km/h (3 Bft)
07/05/2016 11:00 21,2 C 50 % 1012,2 hPa 0,0 l/m 4,6 km/h (1 Bft) E 0,93 h 0,432 mm 625 W/m 10,3 C 21,2 C 11,7 km/h (2 Bft)
07/05/2016 12:00 21,0 C 53 % 1012,2 hPa 0,0 l/m 3,9 km/h (1 Bft) E 0,90 h 0,406 mm 601 W/m 11,0 C 21,0 C 11,2 km/h (2 Bft)
07/05/2016 13:00 21,0 C 46 % 1011,8 hPa 0,0 l/m 6,1 km/h (2 Bft) E-SE 0,83 h 0,381 mm 591 W/m 9,1 C 21,0 C 16,3 km/h (3 Bft)
07/05/2016 14:00 21,1 C 44 % 1011,6 hPa 0,0 l/m 6,0 km/h (2 Bft) E 0,53 h 0,406 mm 600 W/m 8,4 C 21,1 C 15,9 km/h (3 Bft)
07/05/2016 15:00 23,2 C 37 % 1011,4 hPa 0,0 l/m 6,1 km/h (2 Bft) E 1,00 h 0,406 mm 770 W/m 7,7 C 23,2 C 15,3 km/h (3 Bft)
07/05/2016 16:00 22,6 C 34 % 1010,9 hPa 0,0 l/m 5,8 km/h (2 Bft) E-SE 0,97 h 0,533 mm 630 W/m 6,0 C 22,6 C 15,7 km/h (3 Bft)
07/05/2016 17:00 21,9 C 34 % 1010,5 hPa 0,0 l/m 3,8 km/h (1 Bft) E-SE 1,00 h 0,432 mm 448 W/m 5,2 C 21,9 C 10,7 km/h (2 Bft)
07/05/2016 18:00 20,9 C 36 % 1010,4 hPa 0,0 l/m 2,1 km/h (1 Bft) E-SE 0,85 h 0,305 mm 268 W/m 5,2 C 20,9 C 7,0 km/h (2 Bft)
07/05/2016 19:00 18,8 C 43 % 1010,3 hPa 0,0 l/m 1,4 km/h (1 Bft) E 0,55 h 0,178 mm 111 W/m 5,8 C 18,8 C 5,2 km/h (1 Bft)
07/05/2016 20:00 17,4 C 49 % 1010,5 hPa 0,0 l/m 0,1 km/h (0 Bft) E 0,03 h 0,076 mm 20 W/m 6,4 C 17,4 C 0,7 km/h (0 Bft)
07/05/2016 21:00 15,9 C 53 % 1010,8 hPa 0,0 l/m 0,4 km/h (0 Bft) S-SO 0,00 h 0,025 mm 0 W/m 6,4 C 15,9 C 2,0 km/h (1 Bft)
07/05/2016 22:00 15,1 C 61 % 1011,1 hPa 0,0 l/m 0,2 km/h (0 Bft) NE 0,00 h 0,000 mm 0 W/m 7,6 C 15,1 C 0,8 km/h (0 Bft)
07/05/2016 23:00 14,6 C 63 % 1011,3 hPa 0,0 l/m 0,1 km/h (0 Bft) NE 0,00 h 0,025 mm 0 W/m 7,6 C 14,6 C 0,6 km/h (0 Bft)
08/05/2016 00:00 14,2 C 63 % 1011,3 hPa 0,0 l/m 0,2 km/h (0 Bft) NE 0,00 h 0,025 mm 0 W/m 7,2 C 14,2 C 1,2 km/h (1 Bft)
08/05/2016 01:00 14,1 C 60 % 1011,5 hPa 0,0 l/m 0,0 km/h (0 Bft) N 0,00 h 0,025 mm 0 W/m 6,5 C 14,1 C 0,2 km/h (0 Bft)
08/05/2016 02:00 13,4 C 62 % 1011,0 hPa 0,0 l/m 0,0 km/h (0 Bft) N 0,00 h 0,025 mm 0 W/m 6,2 C 13,4 C 0,2 km/h (0 Bft)
08/05/2016 03:00 13,4 C 61 % 1010,9 hPa 0,0 l/m 0,1 km/h (0 Bft) E-NE 0,00 h 0,025 mm 0 W/m 6,1 C 13,4 C 1,2 km/h (1 Bft)
08/05/2016 04:00 14,5 C 59 % 1010,8 hPa 0,0 l/m 1,0 km/h (0 Bft) NE 0,00 h 0,025 mm 0 W/m 6,6 C 14,5 C 3,8 km/h (1 Bft)
08/05/2016 05:00 14,5 C 59 % 1010,6 hPa 0,0 l/m 0,1 km/h (0 Bft) NE 0,00 h 0,025 mm 0 W/m 6,5 C 14,5 C 1,0 km/h (0 Bft)
08/05/2016 06:00 14,5 C 60 % 1010,6 hPa 0,0 l/m 0,1 km/h (0 Bft) NE 0,00 h 0,000 mm 8 W/m 6,7 C 14,5 C 0,6 km/h (0 Bft)
08/05/2016 07:00 14,9 C 60 % 1010,8 hPa 0,0 l/m 0,1 km/h (0 Bft) NE 0,00 h 0,000 mm 54 W/m 7,1 C 14,9 C 0,6 km/h (0 Bft)
08/05/2016 08:00 16,0 C 59 % 1011,2 hPa 0,0 l/m 1,0 km/h (0 Bft) E 0,00 h 0,025 mm 147 W/m 8,0 C 16,0 C 2,7 km/h (1 Bft)
08/05/2016 09:00 17,3 C 61 % 1011,6 hPa 0,0 l/m 0,7 km/h (0 Bft) E 0,00 h 0,102 mm 248 W/m 9,7 C 17,3 C 2,6 km/h (1 Bft)
08/05/2016 10:00 19,3 C 53 % 1011,7 hPa 0,0 l/m 2,3 km/h (1 Bft) E 0,08 h 0,152 mm 338 W/m 9,6 C 19,3 C 6,7 km/h (2 Bft)
08/05/2016 11:00 20,0 C 47 % 1012,1 hPa 0,0 l/m 3,5 km/h (1 Bft) NE 0,00 h 0,203 mm 392 W/m 8,2 C 20,0 C 10,4 km/h (2 Bft)
08/05/2016 12:00 20,4 C 47 % 1012,2 hPa 0,0 l/m 4,4 km/h (1 Bft) E 0,40 h 0,254 mm 469 W/m 8,7 C 20,4 C 12,6 km/h (3 Bft)
08/05/2016 13:00 20,2 C 51 % 1012,4 hPa 0,0 l/m 2,9 km/h (1 Bft) E 0,00 h 0,305 mm 376 W/m 9,8 C 20,2 C 8,9 km/h (2 Bft)
08/05/2016 14:00 19,8 C 55 % 1012,3 hPa 0,0 l/m 3,1 km/h (1 Bft) N-NE 0,00 h 0,254 mm 344 W/m 10,5 C 19,8 C 8,6 km/h (2 Bft)
08/05/2016 15:00 18,3 C 63 % 1012,4 hPa 0,0 l/m 3,9 km/h (1 Bft) E-SE 0,00 h 0,229 mm 161 W/m 11,0 C 18,3 C 10,7 km/h (2 Bft)
08/05/2016 16:00 17,6 C 72 % 1012,7 hPa 0,0 l/m 2,9 km/h (1 Bft) E-SE 0,00 h 0,127 mm 151 W/m 12,4 C 17,6 C 8,9 km/h (2 Bft)
08/05/2016 17:00 17,2 C 71 % 1012,6 hPa 0,0 l/m 1,0 km/h (0 Bft) E 0,00 h 0,102 mm 96 W/m 11,9 C 17,2 C 4,4 km/h (1 Bft)
08/05/2016 18:00 16,8 C 69 % 1012,8 hPa 0,0 l/m 1,1 km/h (0 Bft) E-SE 0,00 h 0,051 mm 38 W/m 11,0 C 16,8 C 4,0 km/h (1 Bft)
08/05/2016 19:00 16,0 C 74 % 1012,9 hPa 0,0 l/m 0,6 km/h (0 Bft) E 0,00 h 0,025 mm 19 W/m 11,5 C 16,0 C 2,6 km/h (1 Bft)
08/05/2016 20:00 15,2 C 78 % 1013,7 hPa 0,0 l/m 0,4 km/h (0 Bft) E-SE 0,00 h 0,025 mm 5 W/m 11,4 C 15,2 C 2,0 km/h (1 Bft)
08/05/2016 21:00 14,3 C 84 % 1014,0 hPa 0,2 l/m 0,4 km/h (0 Bft) NE 0,00 h 0,000 mm 0 W/m 11,6 C 14,3 C 2,3 km/h (1 Bft)
08/05/2016 22:00 13,6 C 89 % 1014,3 hPa 0,4 l/m 0,0 km/h (0 Bft) NE 0,00 h 0,025 mm 0 W/m 11,8 C 13,6 C 0,3 km/h (0 Bft)
08/05/2016 23:00 13,2 C 92 % 1014,4 hPa 0,4 l/m 0,0 km/h (0 Bft) NE 0,00 h 0,000 mm 0 W/m 11,9 C 13,2 C 0,8 km/h (0 Bft)
Min-Date _ 02/05/16 04/05/16 07/05/16 - 02/05/16 - - - - 04/05/16 02/05/16 02/05/16
_ Min-Heure 05:32 13:39 19:15 - 00:00 - - - - 13:44 05:32 00:01
Minimum _ 9,6 C 22 % 1010,2 hPa - 0,0 km/h (0 Bft) - - - - 0,3 C 9,6 C 0,0 km/h (0 Bft)
Max-Date _ 04/05/16 08/05/16 05/05/16 08/05/16 04/05/16 - 02/05/16 04/05/16 02/05/16 08/05/16 04/05/16 06/05/16
_ Max-Heure 12:44 23:23 11:45 22:02 12:49 - 08:06 14:00 12:40 16:51 12:44 12:59
Maximum _ 24,7 C 92 % 1019,1 hPa 0,4 l/m 17,7 km/h
S (3 Bft)
- 0,02 h 0,635 mm 1304 W/m 13,3 C 24,7 C 29,0 km/h
E-SE (5 Bft)
Moyenne _ 16,8 C 53 % 1014,1 hPa #1,0 l/m 1,6 km/h (1 Bft) E-SE #57:07 h #27,968 mm 383 W/m 6,6 C 16,8 C 4,3 km/h (1 Bft)
Roquefort les pins